Trans Exeter — 9HA2572 — position and weather

sailwx.info

Track history (hours):
 
Tides and Currents Weather Stations Pressure Air Temp Water Temp Dewpoint Dewpoint Depression Visibility Wind Speed Wind Dir Waves Ship Positions

Trans Exeter

Last reported at 2016-Jul-25 03:31 UTC. Time now 2016-Jul-25 15:54 UTC.
Position N 37°13' E 003°43'.

Length 118 m; draft 6.5 m.

Type: Ship (hazmat cat C). MMSI: 248908000.

Date/timePositionNaut miles runAvg speedWind from/ knotsBaromVisibWave heightAir tempDewpointWater temp
2016-Jul-25 03:31N 37°13' E 003°43'1414.4
2016-Jul-25 02:33N 37°10' E 003°26'2114.8
2016-Jul-25 01:06N 37°06' E 002°60'814.6
2016-Jul-25 00:33N 37°05' E 002°50'8714.2
2016-Jul-24 18:27N 36°50' E 001°03'16814.0
2016-Jul-24 06:26N 36°19' W 002°23'1314.4
2016-Jul-24 05:33N 36°17' W 002°39'12614.8
2016-Jul-23 21:04N 35°60' W 005°13'815.5
2016-Jul-23 20:34N 35°59' W 005°23'10814.7
2016-Jul-23 13:12N 36°10' W 007°35'914.2
2016-Jul-23 12:33N 36°12' W 007°46'2214.5
2016-Jul-23 11:04N 36°17' W 008°12'2714.6
2016-Jul-23 09:15N 36°23' W 008°44'1014.4
2016-Jul-23 08:32N 36°26' W 008°57'10513.1
2016-Jul-23 00:33N 37°58' W 009°59'  
2016-Jul-20 17:16N 49°43' W 003°39'912.8
2016-Jul-20 16:32N 49°48' W 003°26'1414.2
2016-Jul-20 15:34N 49°55' W 003°07'1615.5
2016-Jul-20 14:33N 50°02' W 002°45'4815.9
2016-Jul-20 11:32N 50°15' W 001°33'1313.3
2016-Jul-20 10:33N 50°19' W 001°14'1111.3
2016-Jul-20 09:34N 50°22' W 000°57'1010.2
2016-Jul-20 08:32N 50°25' W 000°41'1110.8
2016-Jul-20 07:31N 50°28' W 000°24'1312.7
2016-Jul-20 06:30N 50°31' W 000°05'1414.2
2016-Jul-20 05:33N 50°35' E 000°16'4314.5
2016-Jul-20 02:33N 50°58' E 001°15'1312.8
2016-Jul-20 01:33N 51°05' E 001°31'1111.2
2016-Jul-20 00:33N 51°13' E 001°44'1212.1
2016-Jul-19 23:33N 51°23' E 001°55'1413.6
2016-Jul-19 22:33N 51°34' E 002°07'1514.6
2016-Jul-19 21:33N 51°48' E 002°17'3716.0
2016-Jul-19 19:13N 52°25' E 002°21'9012.6
2016-Jul-19 12:05N 53°50' E 001°31'712.9
2016-Jul-19 11:33N 53°57' E 001°28'1212.0
2016-Jul-19 10:34N 54°06' E 001°15'2713.4
2016-Jul-19 08:32N 54°17' E 000°33'1313.6
2016-Jul-19 07:33N 54°22' E 000°12'4414.5
2016-Jul-19 04:32N 54°39' W 000°58'4 0.1
2016-Jul-17 22:12N 54°41' W 001°04'21 5.6
2016-Jul-17 18:28N 54°34' W 000°30'1314.6
2016-Jul-17 17:33N 54°28' W 000°10'1414.4
2016-Jul-17 16:33N 54°22' E 000°13'8913.9
2016-Jul-17 10:07N 53°20' E 002°02'914.8
2016-Jul-17 09:33N 53°14' E 002°11'9312.6
2016-Jul-17 02:13N 51°45' E 002°54'1114.1
2016-Jul-17 01:28N 51°45' E 003°11'1112.1
2016-Jul-17 00:33N 51°36' E 003°23'1312.7
2016-Jul-16 23:33N 51°26' E 003°35'1110.6
2016-Jul-16 22:33N 51°21' E 003°49'9 8.8
2016-Jul-16 21:33N 51°25' E 004°02'8 8.4
2016-Jul-16 20:33N 51°21' E 004°14'6 5.6
2016-Jul-16 19:31N 51°16' E 004°17'1 0.7
2016-Jul-16 18:32N 51°16' E 004°15'0 0.0
2016-Jul-16 17:32N 51°16' E 004°15'0 0.0
2016-Jul-16 16:32N 51°16' E 004°15'0 0.0
2016-Jul-16 15:31N 51°16' E 004°15'0 0.0
2016-Jul-16 14:31N 51°16' E 004°15'0 0.0
2016-Jul-16 13:28N 51°16' E 004°15'0 0.0
2016-Jul-16 12:22N 51°16' E 004°15'0 0.0
2016-Jul-16 11:31N 51°16' E 004°15'0 0.0
2016-Jul-16 10:31N 51°16' E 004°15'0 0.0
2016-Jul-16 09:31N 51°16' E 004°15'0 0.0
2016-Jul-16 08:31N 51°16' E 004°15'0 0.0
2016-Jul-16 07:32N 51°16' E 004°15'1 0.8
2016-Jul-16 06:33N 51°16' E 004°17'2 1.2
2016-Jul-16 04:33N 51°17' E 004°20'1 1.1
2016-Jul-16 03:29N 51°18' E 004°20'0 0.0
2016-Jul-16 02:32N 51°18' E 004°20'0 0.0
2016-Jul-16 01:32N 51°18' E 004°20'0 0.0
2016-Jul-16 00:32N 51°18' E 004°20'0 0.0
2016-Jul-15 23:32N 51°18' E 004°20'0 0.0
2016-Jul-15 22:29N 51°18' E 004°20'0 0.0
2016-Jul-15 21:29N 51°18' E 004°20'0 0.0
2016-Jul-15 20:32N 51°18' E 004°20'0 0.0
2016-Jul-15 19:32N 51°18' E 004°20'0 0.1
2016-Jul-15 18:32N 51°18' E 004°20'0 0.0
2016-Jul-15 17:29N 51°18' E 004°20'0 0.0
2016-Jul-15 16:32N 51°18' E 004°20'0 0.0
2016-Jul-15 15:32N 51°18' E 004°20'0 0.0
2016-Jul-15 14:32N 51°18' E 004°20'0 0.0
2016-Jul-15 13:32N 51°18' E 004°20'0 0.0
2016-Jul-15 12:17N 51°18' E 004°20'0 0.0
2016-Jul-15 11:29N 51°18' E 004°20'0 0.0
2016-Jul-15 10:29N 51°18' E 004°20'0 0.0
2016-Jul-15 09:32N 51°18' E 004°20'0 0.0
2016-Jul-15 08:32N 51°18' E 004°20'0 0.0
2016-Jul-15 07:32N 51°18' E 004°20'0 0.0
2016-Jul-15 06:32N 51°18' E 004°20'0 0.0
2016-Jul-15 05:32N 51°18' E 004°20'0 0.0
2016-Jul-15 04:32N 51°18' E 004°20'  
Track history (hours):
 
Tides and Currents Weather Stations Pressure Air Temp Water Temp Dewpoint Dewpoint Depression Visibility Wind Speed Wind Dir Waves Ship Positions

Trans Exeter

Last reported at 2016-Jul-25 03:31 UTC. Time now 2016-Jul-25 15:54 UTC.
Position N 37°13' E 003°43'.

Length 118 m; draft 6.5 m.

Type: Ship (hazmat cat C). MMSI: 248908000.

Date/timePositionNaut miles runAvg speedWind from/ knotsBaromVisibWave heightAir tempDewpointWater temp
2016-Jul-25 03:31N 37°13' E 003°43'1414.4
2016-Jul-25 02:33N 37°10' E 003°26'2114.8
2016-Jul-25 01:06N 37°06' E 002°60'814.6
2016-Jul-25 00:33N 37°05' E 002°50'8714.2
2016-Jul-24 18:27N 36°50' E 001°03'16814.0
2016-Jul-24 06:26N 36°19' W 002°23'1314.4
2016-Jul-24 05:33N 36°17' W 002°39'12614.8
2016-Jul-23 21:04N 35°60' W 005°13'815.5
2016-Jul-23 20:34N 35°59' W 005°23'10814.7
2016-Jul-23 13:12N 36°10' W 007°35'914.2
2016-Jul-23 12:33N 36°12' W 007°46'2214.5
2016-Jul-23 11:04N 36°17' W 008°12'2714.6
2016-Jul-23 09:15N 36°23' W 008°44'1014.4
2016-Jul-23 08:32N 36°26' W 008°57'10513.1
2016-Jul-23 00:33N 37°58' W 009°59'  
2016-Jul-20 17:16N 49°43' W 003°39'912.8
2016-Jul-20 16:32N 49°48' W 003°26'1414.2
2016-Jul-20 15:34N 49°55' W 003°07'1615.5
2016-Jul-20 14:33N 50°02' W 002°45'4815.9
2016-Jul-20 11:32N 50°15' W 001°33'1313.3
2016-Jul-20 10:33N 50°19' W 001°14'1111.3
2016-Jul-20 09:34N 50°22' W 000°57'1010.2
2016-Jul-20 08:32N 50°25' W 000°41'1110.8
2016-Jul-20 07:31N 50°28' W 000°24'1312.7
2016-Jul-20 06:30N 50°31' W 000°05'1414.2
2016-Jul-20 05:33N 50°35' E 000°16'4314.5
2016-Jul-20 02:33N 50°58' E 001°15'1312.8
2016-Jul-20 01:33N 51°05' E 001°31'1111.2
2016-Jul-20 00:33N 51°13' E 001°44'1212.1
2016-Jul-19 23:33N 51°23' E 001°55'1413.6
2016-Jul-19 22:33N 51°34' E 002°07'1514.6
2016-Jul-19 21:33N 51°48' E 002°17'3716.0
2016-Jul-19 19:13N 52°25' E 002°21'9012.6
2016-Jul-19 12:05N 53°50' E 001°31'712.9
2016-Jul-19 11:33N 53°57' E 001°28'1212.0
2016-Jul-19 10:34N 54°06' E 001°15'2713.4
2016-Jul-19 08:32N 54°17' E 000°33'1313.6
2016-Jul-19 07:33N 54°22' E 000°12'4414.5
2016-Jul-19 04:32N 54°39' W 000°58'4 0.1
2016-Jul-17 22:12N 54°41' W 001°04'21 5.6
2016-Jul-17 18:28N 54°34' W 000°30'1314.6
2016-Jul-17 17:33N 54°28' W 000°10'1414.4
2016-Jul-17 16:33N 54°22' E 000°13'8913.9
2016-Jul-17 10:07N 53°20' E 002°02'914.8
2016-Jul-17 09:33N 53°14' E 002°11'9312.6
2016-Jul-17 02:13N 51°45' E 002°54'1114.1
2016-Jul-17 01:28N 51°45' E 003°11'1112.1
2016-Jul-17 00:33N 51°36' E 003°23'1312.7
2016-Jul-16 23:33N 51°26' E 003°35'1110.6
2016-Jul-16 22:33N 51°21' E 003°49'9 8.8
2016-Jul-16 21:33N 51°25' E 004°02'8 8.4
2016-Jul-16 20:33N 51°21' E 004°14'6 5.6
2016-Jul-16 19:31N 51°16' E 004°17'1 0.7
2016-Jul-16 18:32N 51°16' E 004°15'0 0.0
2016-Jul-16 17:32N 51°16' E 004°15'0 0.0
2016-Jul-16 16:32N 51°16' E 004°15'0 0.0
2016-Jul-16 15:31N 51°16' E 004°15'0 0.0
2016-Jul-16 14:31N 51°16' E 004°15'0 0.0
2016-Jul-16 13:28N 51°16' E 004°15'0 0.0
2016-Jul-16 12:22N 51°16' E 004°15'0 0.0
2016-Jul-16 11:31N 51°16' E 004°15'0 0.0
2016-Jul-16 10:31N 51°16' E 004°15'0 0.0
2016-Jul-16 09:31N 51°16' E 004°15'0 0.0
2016-Jul-16 08:31N 51°16' E 004°15'0 0.0
2016-Jul-16 07:32N 51°16' E 004°15'1 0.8
2016-Jul-16 06:33N 51°16' E 004°17'2 1.2
2016-Jul-16 04:33N 51°17' E 004°20'1 1.1
2016-Jul-16 03:29N 51°18' E 004°20'0 0.0
2016-Jul-16 02:32N 51°18' E 004°20'0 0.0
2016-Jul-16 01:32N 51°18' E 004°20'0 0.0
2016-Jul-16 00:32N 51°18' E 004°20'0 0.0
2016-Jul-15 23:32N 51°18' E 004°20'0 0.0
2016-Jul-15 22:29N 51°18' E 004°20'0 0.0
2016-Jul-15 21:29N 51°18' E 004°20'0 0.0
2016-Jul-15 20:32N 51°18' E 004°20'0 0.0
2016-Jul-15 19:32N 51°18' E 004°20'0 0.1
2016-Jul-15 18:32N 51°18' E 004°20'0 0.0
2016-Jul-15 17:29N 51°18' E 004°20'0 0.0
2016-Jul-15 16:32N 51°18' E 004°20'0 0.0
2016-Jul-15 15:32N 51°18' E 004°20'0 0.0
2016-Jul-15 14:32N 51°18' E 004°20'0 0.0
2016-Jul-15 13:32N 51°18' E 004°20'0 0.0
2016-Jul-15 12:17N 51°18' E 004°20'0 0.0
2016-Jul-15 11:29N 51°18' E 004°20'0 0.0
2016-Jul-15 10:29N 51°18' E 004°20'0 0.0
2016-Jul-15 09:32N 51°18' E 004°20'0 0.0
2016-Jul-15 08:32N 51°18' E 004°20'0 0.0
2016-Jul-15 07:32N 51°18' E 004°20'0 0.0
2016-Jul-15 06:32N 51°18' E 004°20'0 0.0
2016-Jul-15 05:32N 51°18' E 004°20'0 0.0
2016-Jul-15 04:32N 51°18' E 004°20'  

Dump ship's entire track history